Huvudsida
METAR-TAF:

METAR-TAF

Flygplatser :

Cannes, Frankrike

latitud: 43-33N, longitud: 006-57E, höjd: 3 m

Aktuellt väderrapport

Denna rapport gjordes för 29 minuter sedan, klockan 04:00 UTC
Vind 4 kt från nord, varierande mellan nordväst och nordost
Temperatur 4°C
Fuktighet 81%
Tryck 1021 hPa
Sikt 10 km eller mer
Inga moln under 1 500 m eller inga cumulonimbus

METAR: LFMD 190400Z AUTO 35004KT 320V040 CAVOK 04/01 Q1021 NOSIG

Tid: 05:29 (04:29 UTC)

Väderprognos

Denna rapport gjordes för 2 timmar och 29 minuter sedan, klockan 02:00 UTC
Prognos gäller från 19 kl. 03 UTC till 20 kl. 03 UTC
Vind 5 kt från nord/nordväst
Sikt 10 km eller mer
Inga moln under 1 500 m eller inga cumulonimbus
Temporärt
från 19 kl. 05 UTC till 19 kl. 19 UTC
Vind 3 kt varierande vindriktning
Blir
från 19 kl. 15 UTC till 19 kl. 17 UTC
Vind 10 kt från ost

TAF: LFMD 190200Z 1903/2003 34005KT CAVOK TEMPO 1905/1919 VRB03KT BECMG 1915/1917 09010KT

Aktuella väderrapporter och prognoser från 4000 flygplatser (METAR- och TAF-rapporter).

De tillgängliga stationerna syns som gula och röda prickar på kartan.

För musen över prickarna för att se namnen på stationerna.

Klicka sedan för att få väderrapporter och prognoser.

För att ändra kartan: Klicka på de gröna knapparna med ett svart kors på för att zooma in; den gröna knappen med ett streck på för att zooma ut; eller på de gröna pilarna för angränsande kartor.


METAR-TAF: